createdAt,value
2022-12-13T00:00:10.352Z,24.83
2022-12-13T00:02:37.414Z,27.00
2022-12-13T00:05:04.622Z,25.52
2022-12-13T00:07:31.691Z,25.60
2022-12-13T00:09:58.698Z,25.70
2022-12-13T00:12:25.714Z,27.85
2022-12-13T00:14:52.723Z,26.15
2022-12-13T00:17:20.306Z,26.45
2022-12-13T00:19:47.638Z,27.75
2022-12-13T00:22:14.849Z,26.40
2022-12-13T00:24:46.012Z,27.60
2022-12-13T00:27:13.358Z,28.42
2022-12-13T00:29:40.503Z,27.90
2022-12-13T00:32:07.701Z,27.65
2022-12-13T00:34:34.847Z,29.02
2022-12-13T00:37:01.930Z,26.90
2022-12-13T00:39:29.116Z,25.92
2022-12-13T00:41:56.149Z,26.58
2022-12-13T00:44:23.137Z,27.80
2022-12-13T00:46:51.787Z,27.48
2022-12-13T00:49:19.237Z,30.08
2022-12-13T00:51:48.206Z,28.65
2022-12-13T00:54:15.277Z,28.67
2022-12-13T00:56:42.391Z,26.80
2022-12-13T00:59:10.346Z,27.98
2022-12-13T01:01:37.631Z,28.67
2022-12-13T01:04:05.019Z,27.42
2022-12-13T01:06:34.167Z,28.30
2022-12-13T01:09:01.534Z,27.00
2022-12-13T01:11:28.552Z,28.23
2022-12-13T01:13:55.548Z,27.20
2022-12-13T01:16:22.652Z,28.00
2022-12-13T01:18:49.710Z,25.65
2022-12-13T01:21:17.876Z,26.25
2022-12-13T01:23:44.962Z,26.40
2022-12-13T01:26:13.338Z,26.63
2022-12-13T01:28:40.507Z,25.45
2022-12-13T01:31:08.847Z,27.05
2022-12-13T01:33:36.035Z,25.55
2022-12-13T01:36:03.479Z,24.55
2022-12-13T01:38:30.560Z,26.08
2022-12-13T01:41:00.546Z,25.35
2022-12-13T01:43:42.886Z,26.80
2022-12-13T01:46:10.232Z,25.83
2022-12-13T01:48:39.661Z,24.60
2022-12-13T01:51:06.823Z,25.33
2022-12-13T01:53:34.147Z,26.30
2022-12-13T01:56:08.721Z,25.40
2022-12-13T01:58:35.771Z,26.48
2022-12-13T02:01:02.902Z,26.30
2022-12-13T02:03:30.003Z,26.00
2022-12-13T02:06:00.566Z,25.02
2022-12-13T02:08:28.978Z,23.25
2022-12-13T02:10:56.194Z,25.02
2022-12-13T02:13:23.239Z,23.75
2022-12-13T02:15:54.557Z,26.92
2022-12-13T02:18:40.263Z,23.63
2022-12-13T02:21:28.291Z,23.48
2022-12-13T02:24:01.552Z,29.67
2022-12-13T02:26:52.977Z,25.23
2022-12-13T02:29:30.899Z,23.08
2022-12-13T02:32:28.079Z,23.95
2022-12-13T02:35:06.347Z,23.67
2022-12-13T02:37:36.942Z,24.77
2022-12-13T02:40:06.825Z,24.90
2022-12-13T02:42:42.701Z,24.50
2022-12-13T02:45:20.065Z,25.70
2022-12-13T02:47:47.519Z,25.48
2022-12-13T02:50:14.602Z,25.20
2022-12-13T02:52:42.930Z,26.23
2022-12-13T02:55:12.582Z,24.95
2022-12-13T02:57:40.649Z,25.65
2022-12-13T03:00:30.200Z,25.00
2022-12-13T03:02:57.456Z,25.15
2022-12-13T03:05:55.201Z,27.52
2022-12-13T03:08:26.575Z,24.83
2022-12-13T03:11:03.578Z,24.98
2022-12-13T03:13:50.886Z,23.70
2022-12-13T03:16:22.797Z,25.67
2022-12-13T03:18:50.776Z,23.08
2022-12-13T03:21:17.890Z,24.80
2022-12-13T03:23:45.135Z,24.25
2022-12-13T03:26:13.353Z,24.23
2022-12-13T03:28:40.536Z,23.65
2022-12-13T03:31:07.688Z,23.38
2022-12-13T03:33:34.830Z,24.23
2022-12-13T03:36:02.344Z,23.73
2022-12-13T03:38:29.413Z,24.10
2022-12-13T03:40:57.826Z,23.85
2022-12-13T03:43:24.930Z,24.13
2022-12-13T03:45:52.469Z,23.30
2022-12-13T03:48:22.006Z,24.17
2022-12-13T03:50:50.821Z,22.85
2022-12-13T03:53:22.822Z,21.48
2022-12-13T03:56:00.765Z,22.35
2022-12-13T03:58:35.054Z,22.55
2022-12-13T04:01:03.953Z,22.20
2022-12-13T04:03:30.984Z,21.23
2022-12-13T04:05:58.058Z,21.77
2022-12-13T04:08:25.174Z,22.98
2022-12-13T04:10:52.330Z,21.17
2022-12-13T04:13:34.746Z,21.60
2022-12-13T04:16:02.294Z,22.73
2022-12-13T04:18:29.430Z,20.40
2022-12-13T04:20:57.567Z,20.77
2022-12-13T04:23:24.794Z,22.35
2022-12-13T04:25:51.894Z,20.52
2022-12-13T04:28:22.165Z,23.00
2022-12-13T04:30:53.517Z,20.38
2022-12-13T04:33:21.518Z,20.02
2022-12-13T04:35:48.733Z,20.40
2022-12-13T04:38:15.989Z,21.02
2022-12-13T04:40:43.006Z,20.95
2022-12-13T04:43:10.138Z,18.98
2022-12-13T04:45:37.268Z,20.02
2022-12-13T04:48:04.534Z,19.85
2022-12-13T04:50:31.572Z,21.55
2022-12-13T04:52:58.589Z,19.70
2022-12-13T04:55:25.678Z,20.45
2022-12-13T04:57:52.713Z,21.60
2022-12-13T05:00:22.052Z,20.33
2022-12-13T05:02:49.283Z,20.63
2022-12-13T05:05:16.716Z,21.38
2022-12-13T05:07:44.206Z,21.98
2022-12-13T05:10:11.751Z,21.35
2022-12-13T05:12:38.841Z,22.77
2022-12-13T05:15:06.354Z,19.85
2022-12-13T05:17:33.472Z,22.27
2022-12-13T05:20:00.529Z,21.17
2022-12-13T05:22:30.379Z,20.92
2022-12-13T05:24:57.627Z,22.15
2022-12-13T05:27:26.889Z,22.02
2022-12-13T05:30:02.885Z,21.87
2022-12-13T05:32:43.465Z,22.90
2022-12-13T05:35:22.854Z,25.15
2022-12-13T05:37:53.772Z,21.17
2022-12-13T05:40:21.734Z,22.92
2022-12-13T05:42:48.730Z,21.95
2022-12-13T05:45:16.086Z,22.08
2022-12-13T05:47:43.450Z,24.95
2022-12-13T05:50:10.741Z,23.33
2022-12-13T05:52:37.853Z,24.25
2022-12-13T05:55:05.233Z,23.58
2022-12-13T05:57:32.505Z,29.48
2022-12-13T06:00:01.224Z,23.90
2022-12-13T06:02:28.560Z,25.10
2022-12-13T06:04:55.788Z,24.20
2022-12-13T06:07:22.808Z,24.10
2022-12-13T06:09:49.900Z,23.88
2022-12-13T06:12:32.393Z,25.48
2022-12-13T06:15:01.171Z,21.45
2022-12-13T06:17:32.243Z,21.92
2022-12-13T06:19:59.321Z,20.95
2022-12-13T06:22:26.453Z,20.23
2022-12-13T06:24:53.605Z,20.33
2022-12-13T06:27:21.103Z,22.10
2022-12-13T06:29:48.220Z,21.63
2022-12-13T06:32:15.314Z,20.52
2022-12-13T06:34:42.334Z,22.65
2022-12-13T06:37:09.732Z,20.80
2022-12-13T06:39:36.784Z,21.60
2022-12-13T06:42:06.323Z,21.10
2022-12-13T06:44:33.640Z,22.13
2022-12-13T06:47:10.639Z,22.73
2022-12-13T06:49:39.606Z,23.63
2022-12-13T06:52:07.066Z,21.83
2022-12-13T06:54:34.537Z,23.25
2022-12-13T06:57:02.058Z,22.55
2022-12-13T06:59:29.145Z,23.10
2022-12-13T07:01:56.235Z,23.92
2022-12-13T07:04:31.297Z,23.65
2022-12-13T07:07:01.883Z,24.52
2022-12-13T07:09:32.289Z,22.95
2022-12-13T07:11:59.671Z,23.65
2022-12-13T07:14:26.777Z,24.75
2022-12-13T07:16:59.418Z,26.50
2022-12-13T07:19:35.250Z,24.75
2022-12-13T07:22:03.071Z,26.42
2022-12-13T07:24:30.165Z,28.83
2022-12-13T07:26:57.226Z,25.95
2022-12-13T07:29:24.233Z,28.13
2022-12-13T07:31:51.247Z,26.15
2022-12-13T07:34:18.507Z,26.63
2022-12-13T07:36:45.847Z,27.00
2022-12-13T07:39:12.906Z,27.58
2022-12-13T07:41:39.974Z,26.25
2022-12-13T07:44:07.037Z,29.48
2022-12-13T07:46:34.350Z,27.25
2022-12-13T07:49:04.738Z,27.33
2022-12-13T07:53:58.899Z,24.95
2022-12-13T07:56:25.989Z,27.13
2022-12-13T07:58:53.071Z,27.15
2022-12-13T08:01:20.185Z,27.65
2022-12-13T08:03:50.178Z,28.23
2022-12-13T08:06:19.228Z,26.38
2022-12-13T08:08:46.705Z,26.90
2022-12-13T08:11:15.371Z,25.38
2022-12-13T08:13:42.519Z,26.42
2022-12-13T08:16:27.157Z,29.45
2022-12-13T08:19:02.333Z,27.55
2022-12-13T08:21:58.515Z,27.77
2022-12-13T08:24:28.430Z,27.88
2022-12-13T08:26:57.338Z,28.00
2022-12-13T08:29:34.264Z,29.98
2022-12-13T08:32:06.585Z,29.55
2022-12-13T08:34:33.661Z,28.38
2022-12-13T08:37:01.487Z,28.90
2022-12-13T08:39:30.245Z,27.83
2022-12-13T08:42:16.194Z,26.08
2022-12-13T08:44:45.993Z,26.70
2022-12-13T08:47:22.674Z,25.25
2022-12-13T08:49:52.281Z,26.98
2022-12-13T08:52:19.577Z,25.90
2022-12-13T08:54:46.644Z,28.45
2022-12-13T08:57:13.796Z,26.90
2022-12-13T08:59:40.810Z,26.20
2022-12-13T09:02:09.729Z,25.90
2022-12-13T09:04:37.293Z,25.60
2022-12-13T09:07:04.502Z,24.63
2022-12-13T09:09:31.586Z,24.60
2022-12-13T09:11:59.487Z,25.67
2022-12-13T09:14:33.796Z,25.63
2022-12-13T09:17:03.041Z,26.58
2022-12-13T09:19:37.357Z,26.52
2022-12-13T09:22:05.044Z,24.13
2022-12-13T09:24:36.597Z,24.13
2022-12-13T09:27:09.718Z,23.98
2022-12-13T09:29:37.640Z,22.73
2022-12-13T09:32:05.042Z,24.60
2022-12-13T09:34:34.970Z,22.20
2022-12-13T09:37:02.177Z,22.48
2022-12-13T09:39:29.794Z,22.48
2022-12-13T09:42:01.193Z,21.95
2022-12-13T09:44:43.620Z,23.25
2022-12-13T09:47:15.148Z,22.80
2022-12-13T09:49:52.232Z,22.17
2022-12-13T09:52:21.934Z,22.55
2022-12-13T09:54:49.723Z,24.15
2022-12-13T09:57:32.757Z,22.38
2022-12-13T10:00:01.799Z,22.27
2022-12-13T10:02:29.913Z,23.42
2022-12-13T10:05:21.810Z,22.00
2022-12-13T10:07:50.380Z,20.70
2022-12-13T10:10:17.449Z,21.85
2022-12-13T10:12:44.494Z,20.38
2022-12-13T10:15:11.858Z,20.65
2022-12-13T10:17:39.775Z,20.08
2022-12-13T10:20:07.137Z,21.00
2022-12-13T10:22:34.260Z,20.83
2022-12-13T10:25:05.205Z,21.33
2022-12-13T10:27:36.632Z,18.90
2022-12-13T10:30:14.230Z,21.85
2022-12-13T10:32:53.937Z,20.60
2022-12-13T10:35:24.481Z,21.63
2022-12-13T10:40:32.766Z,19.25
2022-12-13T10:43:09.723Z,19.98
2022-12-13T10:45:36.814Z,20.40
2022-12-13T10:48:04.577Z,18.73
2022-12-13T10:50:31.791Z,20.42
2022-12-13T10:53:00.169Z,21.05
2022-12-13T10:55:34.414Z,20.35
2022-12-13T10:58:02.761Z,20.80
2022-12-13T11:00:35.005Z,21.27
2022-12-13T11:03:02.169Z,21.10
2022-12-13T11:05:30.053Z,20.30
2022-12-13T11:08:00.931Z,20.85
2022-12-13T11:10:29.258Z,19.27
2022-12-13T11:13:03.684Z,20.88
2022-12-13T11:15:31.084Z,21.25
2022-12-13T11:18:08.511Z,20.00
2022-12-13T11:20:36.993Z,21.05
2022-12-13T11:23:13.386Z,18.98
2022-12-13T11:25:44.593Z,20.13
2022-12-13T11:28:30.901Z,18.58
2022-12-13T11:31:22.879Z,20.98
2022-12-13T11:33:50.669Z,17.95
2022-12-13T11:36:40.546Z,18.67
2022-12-13T11:39:13.357Z,18.52
2022-12-13T11:42:14.610Z,21.15
2022-12-13T11:45:00.786Z,18.65
2022-12-13T11:47:58.173Z,19.25
2022-12-13T11:50:52.246Z,17.90
2022-12-13T11:53:28.695Z,19.13
2022-12-13T11:56:17.345Z,18.30
2022-12-13T11:59:07.961Z,18.95
2022-12-13T12:01:39.336Z,16.88
2022-12-13T12:04:25.317Z,19.40
2022-12-13T12:06:57.938Z,17.60
2022-12-13T12:09:24.945Z,17.88
2022-12-13T12:11:54.565Z,18.90
2022-12-13T12:14:27.767Z,18.87
2022-12-13T12:16:55.416Z,17.80
2022-12-13T12:19:24.140Z,18.05
2022-12-13T12:22:14.698Z,18.02
2022-12-13T12:25:01.425Z,15.57
2022-12-13T12:27:28.594Z,15.65
2022-12-13T12:29:55.689Z,16.90
2022-12-13T12:32:41.483Z,16.90
2022-12-13T12:35:27.730Z,14.77
2022-12-13T12:38:11.429Z,15.02
2022-12-13T12:43:37.752Z,16.25
2022-12-13T12:46:23.957Z,16.55
2022-12-13T12:49:01.855Z,17.30
2022-12-13T12:51:52.770Z,18.50
2022-12-13T12:54:43.380Z,18.33
2022-12-13T12:57:22.086Z,19.15
2022-12-13T12:59:49.297Z,17.83
2022-12-13T13:02:28.332Z,17.48
2022-12-13T13:04:57.431Z,17.92
2022-12-13T13:07:25.941Z,18.00
2022-12-13T13:09:55.141Z,16.33
2022-12-13T13:12:29.414Z,16.95
2022-12-13T13:14:56.859Z,16.15
2022-12-13T13:17:27.008Z,15.82
2022-12-13T13:20:14.332Z,19.27
2022-12-13T13:22:42.878Z,19.35
2022-12-13T13:25:14.657Z,19.70
2022-12-13T13:27:42.418Z,18.65
2022-12-13T13:30:15.697Z,18.17
2022-12-13T13:32:42.751Z,18.05
2022-12-13T13:35:37.614Z,18.20
2022-12-13T13:38:24.956Z,19.13
2022-12-13T13:40:52.052Z,17.35
2022-12-13T13:43:32.134Z,19.55
2022-12-13T13:48:40.339Z,17.58
2022-12-13T13:53:40.473Z,17.65
2022-12-13T13:56:17.358Z,19.20
2022-12-13T13:58:44.457Z,19.55
2022-12-13T14:01:30.160Z,18.67
2022-12-13T14:04:00.407Z,18.67
2022-12-13T14:06:39.486Z,19.52
2022-12-13T14:09:12.367Z,19.08
2022-12-13T14:11:51.823Z,18.27
2022-12-13T14:14:22.846Z,18.42
2022-12-13T14:16:49.995Z,19.23
2022-12-13T14:19:25.483Z,19.42
2022-12-13T14:22:01.851Z,19.80
2022-12-13T14:24:28.996Z,20.42
2022-12-13T14:27:11.225Z,20.77
2022-12-13T14:29:39.237Z,19.55
2022-12-13T14:32:26.728Z,20.23
2022-12-13T14:34:54.487Z,19.70
2022-12-13T14:37:27.110Z,19.85
2022-12-13T14:39:54.499Z,18.15
2022-12-13T14:42:33.794Z,19.55
2022-12-13T14:45:14.136Z,19.48
2022-12-13T14:47:41.683Z,20.58
2022-12-13T14:50:08.958Z,19.55
2022-12-13T14:52:36.559Z,18.95
2022-12-13T14:55:06.657Z,20.45
2022-12-13T14:57:34.310Z,19.33
2022-12-13T15:00:01.929Z,22.75
2022-12-13T15:02:31.822Z,22.55
2022-12-13T15:05:03.476Z,24.48
2022-12-13T15:07:41.172Z,23.48
2022-12-13T15:10:27.968Z,23.20
2022-12-13T15:12:55.109Z,21.70
2022-12-13T15:15:32.222Z,23.40
2022-12-13T15:18:25.999Z,23.90
2022-12-13T15:20:53.524Z,24.15
2022-12-13T15:23:20.534Z,24.00
2022-12-13T15:25:49.129Z,23.92
2022-12-13T15:28:21.363Z,23.58
2022-12-13T15:30:48.943Z,24.20
2022-12-13T15:33:27.613Z,24.80
2022-12-13T15:36:14.772Z,24.55
2022-12-13T15:39:00.073Z,25.08
2022-12-13T15:41:31.099Z,24.65
2022-12-13T15:43:58.927Z,23.65
2022-12-13T15:46:32.783Z,26.58
2022-12-13T15:49:00.733Z,25.85
2022-12-13T15:51:29.415Z,25.23
2022-12-13T15:54:07.628Z,25.00
2022-12-13T15:56:36.410Z,26.98
2022-12-13T15:59:04.389Z,25.08
2022-12-13T16:01:33.613Z,23.27
2022-12-13T16:04:03.532Z,24.83
2022-12-13T16:06:30.787Z,23.67
2022-12-13T16:08:59.103Z,22.08
2022-12-13T16:11:31.047Z,23.20
2022-12-13T16:14:25.862Z,24.35
2022-12-13T16:16:53.854Z,25.98
2022-12-13T16:19:20.950Z,28.42
2022-12-13T16:21:47.967Z,26.80
2022-12-13T16:24:15.027Z,24.17
2022-12-13T16:26:46.326Z,23.27
2022-12-13T16:29:14.350Z,22.23
2022-12-13T16:31:41.409Z,22.08
2022-12-13T16:34:08.614Z,22.88
2022-12-13T16:36:36.236Z,24.00
2022-12-13T16:39:04.025Z,25.48
2022-12-13T16:41:31.114Z,29.33
2022-12-13T16:44:01.858Z,31.58
2022-12-13T16:47:12.940Z,31.20
2022-12-13T16:49:24.496Z,32.85
2022-12-13T16:51:51.588Z,31.92
2022-12-13T16:54:19.398Z,31.13
2022-12-13T16:56:46.663Z,33.75
2022-12-13T16:59:20.523Z,29.83
2022-12-13T17:01:47.580Z,31.75
2022-12-13T17:04:20.138Z,30.17
2022-12-13T17:06:47.955Z,29.50
2022-12-13T17:09:15.070Z,33.10
2022-12-13T17:11:42.171Z,34.20
2022-12-13T17:14:09.173Z,34.33
2022-12-13T17:16:36.358Z,35.55
2022-12-13T17:19:03.455Z,35.67
2022-12-13T17:21:30.520Z,30.83
2022-12-13T17:23:57.923Z,30.52
2022-12-13T17:26:25.147Z,28.17
2022-12-13T17:28:52.242Z,30.58
2022-12-13T17:31:19.646Z,29.23
2022-12-13T17:33:46.942Z,31.63
2022-12-13T17:36:14.412Z,33.00
2022-12-13T17:38:45.573Z,30.55
2022-12-13T17:41:12.987Z,31.55
2022-12-13T17:43:40.633Z,33.88
2022-12-13T17:46:08.944Z,35.17
2022-12-13T17:48:40.800Z,38.45
2022-12-13T17:51:08.956Z,35.45
2022-12-13T17:53:36.262Z,36.40
2022-12-13T17:56:04.080Z,34.80
2022-12-13T17:58:32.312Z,37.78
2022-12-13T18:00:59.797Z,35.50
2022-12-13T18:03:27.250Z,35.60
2022-12-13T18:05:58.102Z,35.85
2022-12-13T18:08:25.469Z,29.13
2022-12-13T18:11:30.827Z,25.60
2022-12-13T18:13:46.149Z,29.55
2022-12-13T18:16:14.268Z,30.90
2022-12-13T18:18:41.464Z,29.02
2022-12-13T18:21:09.220Z,28.08
2022-12-13T18:23:36.345Z,29.65
2022-12-13T18:26:03.985Z,26.95
2022-12-13T18:28:31.105Z,27.65
2022-12-13T18:30:58.960Z,25.05
2022-12-13T18:33:26.469Z,23.48
2022-12-13T18:35:54.134Z,23.92
2022-12-13T18:38:23.291Z,21.95
2022-12-13T18:40:50.984Z,21.13
2022-12-13T18:43:18.530Z,20.83
2022-12-13T18:45:45.642Z,21.85
2022-12-13T18:48:12.797Z,21.20
2022-12-13T18:50:42.996Z,21.88
2022-12-13T18:53:14.214Z,22.23
2022-12-13T18:55:41.259Z,20.92
2022-12-13T18:58:08.268Z,23.42
2022-12-13T19:00:35.338Z,22.63
2022-12-13T19:03:02.422Z,23.10
2022-12-13T19:05:29.723Z,22.77
2022-12-13T19:07:56.724Z,22.67
2022-12-13T19:10:23.750Z,24.45
2022-12-13T19:12:51.019Z,25.08
2022-12-13T19:15:18.866Z,34.90
2022-12-13T19:17:47.860Z,21.67
2022-12-13T19:20:15.639Z,20.98
2022-12-13T19:22:42.697Z,20.05
2022-12-13T19:25:10.406Z,18.17
2022-12-13T19:27:37.628Z,21.02
2022-12-13T19:30:05.110Z,19.63
2022-12-13T19:32:33.041Z,19.30
2022-12-13T19:35:00.144Z,18.98
2022-12-13T19:37:27.218Z,17.40
2022-12-13T19:39:54.267Z,17.88
2022-12-13T19:42:21.363Z,16.45
2022-12-13T19:44:48.921Z,16.70
2022-12-13T19:47:16.404Z,16.63
2022-12-13T19:49:43.428Z,18.45
2022-12-13T19:52:10.477Z,19.88
2022-12-13T19:54:37.591Z,19.58
2022-12-13T19:57:07.441Z,20.30
2022-12-13T19:59:34.768Z,24.40
2022-12-13T20:02:02.038Z,21.05
2022-12-13T20:04:29.176Z,23.90
2022-12-13T20:06:56.906Z,27.63
2022-12-13T20:09:23.986Z,31.45
2022-12-13T20:11:51.091Z,27.42
2022-12-13T20:14:18.115Z,27.95
2022-12-13T20:16:45.146Z,30.75
2022-12-13T20:19:12.470Z,31.08
2022-12-13T20:21:39.546Z,31.38
2022-12-13T20:24:06.725Z,26.30
2022-12-13T20:26:33.878Z,22.40
2022-12-13T20:29:01.007Z,18.52
2022-12-13T20:31:29.078Z,18.83
2022-12-13T20:33:56.852Z,21.48
2022-12-13T20:36:26.519Z,20.30
2022-12-13T20:38:57.518Z,18.23
2022-12-13T20:41:25.350Z,19.05
2022-12-13T20:43:53.047Z,19.33
2022-12-13T20:46:20.403Z,18.48
2022-12-13T20:48:47.863Z,20.60
2022-12-13T20:51:16.175Z,19.67
2022-12-13T20:53:43.813Z,21.20
2022-12-13T20:56:11.677Z,20.95
2022-12-13T20:58:40.314Z,22.98
2022-12-13T21:01:07.565Z,20.30
2022-12-13T21:03:34.737Z,20.10
2022-12-13T21:06:01.764Z,18.50
2022-12-13T21:08:47.433Z,18.27
2022-12-13T21:11:26.666Z,18.85
2022-12-13T21:13:53.804Z,20.08
2022-12-13T21:16:21.049Z,21.77
2022-12-13T21:18:48.354Z,23.20
2022-12-13T21:21:15.527Z,23.63
2022-12-13T21:23:42.703Z,22.58
2022-12-13T21:26:10.088Z,22.63
2022-12-13T21:28:37.158Z,20.85
2022-12-13T21:31:04.892Z,21.20
2022-12-13T21:33:31.906Z,22.65
2022-12-13T21:35:58.915Z,24.33
2022-12-13T21:38:25.934Z,23.02
2022-12-13T21:40:52.987Z,23.08
2022-12-13T21:43:36.629Z,24.23
2022-12-13T21:46:10.475Z,23.30
2022-12-13T21:48:38.083Z,23.75
2022-12-13T21:51:05.222Z,23.13
2022-12-13T21:53:32.236Z,22.02
2022-12-13T21:56:17.754Z,22.40
2022-12-13T21:59:03.574Z,25.75
2022-12-13T22:02:00.334Z,26.25
2022-12-13T22:04:27.435Z,27.95
2022-12-13T22:06:54.439Z,30.65
2022-12-13T22:09:21.545Z,30.02
2022-12-13T22:11:48.573Z,31.40
2022-12-13T22:14:15.666Z,31.13
2022-12-13T22:16:42.785Z,29.10
2022-12-13T22:19:10.658Z,26.98
2022-12-13T22:21:37.715Z,25.20
2022-12-13T22:24:04.858Z,24.17
2022-12-13T22:26:32.012Z,23.30
2022-12-13T22:28:59.246Z,23.17
2022-12-13T22:31:29.717Z,21.35
2022-12-13T22:33:57.162Z,20.67
2022-12-13T22:36:24.319Z,22.00
2022-12-13T22:38:51.422Z,23.02
2022-12-13T22:41:18.467Z,22.73
2022-12-13T22:43:45.617Z,21.65
2022-12-13T22:46:19.269Z,20.48
2022-12-13T22:48:46.593Z,19.17
2022-12-13T22:51:14.517Z,20.10
2022-12-13T22:53:41.740Z,20.73
2022-12-13T22:56:12.726Z,22.02
2022-12-13T22:58:39.998Z,20.20
2022-12-13T23:01:11.086Z,20.52
2022-12-13T23:03:38.689Z,19.20
2022-12-13T23:06:15.642Z,18.33
2022-12-13T23:08:43.639Z,18.67
2022-12-13T23:11:29.712Z,19.95
2022-12-13T23:13:57.632Z,19.58
2022-12-13T23:16:25.509Z,19.85
2022-12-13T23:19:05.260Z,18.92
2022-12-13T23:21:39.653Z,18.40
2022-12-13T23:24:06.872Z,19.67
2022-12-13T23:26:34.289Z,20.48
2022-12-13T23:29:02.277Z,20.20
2022-12-13T23:31:29.959Z,19.83
2022-12-13T23:33:56.999Z,19.23
2022-12-13T23:36:24.484Z,20.83
2022-12-13T23:38:51.693Z,17.63
2022-12-13T23:41:23.401Z,20.70
2022-12-13T23:43:50.991Z,19.55
2022-12-13T23:46:19.156Z,19.80
2022-12-13T23:48:46.332Z,18.15
2022-12-13T23:51:13.875Z,17.00
2022-12-13T23:53:40.996Z,15.35
2022-12-13T23:56:09.301Z,16.45
2022-12-13T23:58:37.062Z,16.17
